Time;durP1;ratioP1;P1;durP2;ratioP2;P2;SDS_P1;SDS_P2;PMS_P1;PMS_P2;Temp;Humidity;BMP_temperature;BMP_pressure;BME280_temperature;BME280_humidity;BME280_pressure;Samples;Min_cycle;Max_cycle;Signal;HPM_P1;HPM_P2
2022/08/11 00:00:18;;;;;;;7.22;6.93;;;;;;;14.96;100.00;101103.53;5051211;28;20051;-65
2022/08/11 00:02:49;;;;;;;7.30;7.00;;;;;;;14.96;100.00;101108.88;5051047;28;20476;-63
2022/08/11 00:05:18;;;;;;;7.53;7.22;;;;;;;14.92;100.00;101099.59;5051549;28;20021;-62
2022/08/11 00:07:50;;;;;;;7.40;7.10;;;;;;;14.91;100.00;101092.59;5052098;28;20572;-64
2022/08/11 00:10:19;;;;;;;7.30;7.00;;;;;;;14.86;100.00;101095.81;5051273;28;20048;-64
2022/08/11 00:13:00;;;;;;;7.43;7.13;;;;;;;14.83;100.00;101087.34;5050974;28;20053;-65
2022/08/11 00:15:36;;;;;;;8.10;7.70;;;;;;;14.89;100.00;101081.25;5051001;28;20027;-65
2022/08/11 00:18:02;;;;;;;7.40;7.10;;;;;;;14.82;100.00;101081.16;5051101;28;20048;-65
2022/08/11 00:20:32;;;;;;;7.75;7.45;;;;;;;14.78;100.00;101082.59;5053919;28;20242;-64
2022/08/11 00:23:08;;;;;;;7.60;7.30;;;;;;;14.81;100.00;101092.06;5056488;28;20025;-65
2022/08/11 00:25:46;;;;;;;7.40;7.10;;;;;;;14.82;100.00;101097.19;5056632;28;20048;-64
2022/08/11 00:28:23;;;;;;;7.60;7.30;;;;;;;14.78;100.00;101095.94;5054177;28;20476;-65
2022/08/11 00:30:51;;;;;;;7.40;7.10;;;;;;;14.81;100.00;101097.41;5054472;28;20029;-66
2022/08/11 00:33:19;;;;;;;7.50;7.20;;;;;;;14.73;100.00;101093.00;5054475;28;20013;-63
2022/08/11 00:35:48;;;;;;;7.20;6.90;;;;;;;14.68;100.00;101082.03;5046694;28;20025;-64
2022/08/11 00:38:15;;;;;;;7.47;7.18;;;;;;;14.70;100.00;101093.38;5054253;28;20032;-64
2022/08/11 00:41:19;;;;;;;7.70;7.40;;;;;;;14.65;100.00;101104.63;5049759;28;20021;-63
2022/08/11 00:44:02;;;;;;;7.60;7.30;;;;;;;14.64;100.00;101094.13;5054025;28;20033;-63
2022/08/11 00:47:09;;;;;;;7.20;6.90;;;;;;;14.71;100.00;101099.56;5054204;28;20034;-65
2022/08/11 00:49:56;;;;;;;7.28;6.97;;;;;;;14.67;100.00;101098.25;5045581;28;20033;-63
2022/08/11 00:53:00;;;;;;;7.60;7.30;;;;;;;14.63;100.00;101095.97;5054036;28;20029;-65
2022/08/11 00:56:05;;;;;;;7.43;7.13;;;;;;;14.56;100.00;101097.72;5050077;28;20067;-64
2022/08/11 00:58:43;;;;;;;;;;;;;;;14.51;100.00;101099.31;5050929;28;20082;-64
2022/08/11 01:01:14;;;;;;;7.20;6.90;;;;;;;14.56;100.00;101105.75;5054124;28;19917;-64
2022/08/11 01:04:02;;;;;;;7.53;7.22;;;;;;;14.55;100.00;101108.59;5053645;28;20060;-63
2022/08/11 01:06:39;;;;;;;7.40;7.10;;;;;;;14.52;100.00;101106.28;5053848;28;20075;-63
2022/08/11 01:09:41;;;;;;;7.50;7.20;;;;;;;14.53;100.00;101108.78;5053621;28;20060;-63
2022/08/11 01:12:28;;;;;;;7.40;7.10;;;;;;;14.55;100.00;101103.28;5053772;28;20032;-64
2022/08/11 01:15:24;;;;;;;7.47;7.18;;;;;;;14.50;100.00;101105.66;5055809;28;20044;-65
2022/08/11 01:17:59;;;;;;;7.25;6.95;;;;;;;14.43;100.00;101102.03;5060424;28;20056;-63
2022/08/11 01:20:58;;;;;;;7.38;7.07;;;;;;;14.39;100.00;101096.22;5053570;28;20476;-63
2022/08/11 01:23:35;;;;;;;7.45;7.15;;;;;;;14.40;100.00;101099.75;5052095;28;20039;-64
2022/08/11 01:26:19;;;;;;;7.25;6.95;;;;;;;14.37;100.00;101088.41;5053401;28;20029;-64
2022/08/11 01:28:48;;;;;;;7.17;6.87;;;;;;;14.36;100.00;101089.44;5053510;28;20170;-63
2022/08/11 01:31:48;;;;;;;7.50;7.20;;;;;;;14.45;100.00;101095.50;5053285;28;20427;-64
2022/08/11 01:34:25;;;;;;;7.43;7.13;;;;;;;14.46;100.00;101093.69;5053048;28;20024;-64
2022/08/11 01:37:29;;;;;;;7.40;7.10;;;;;;;14.47;100.00;101092.66;5049689;28;20036;-64
2022/08/11 01:39:57;;;;;;;7.43;7.13;;;;;;;14.52;100.00;101090.28;5053124;28;20553;-63
2022/08/11 01:45:22;;;;;;;7.38;7.07;;;;;;;14.49;100.00;101079.97;5051488;28;20127;-65
2022/08/11 01:48:14;;;;;;;7.10;6.80;;;;;;;14.38;100.00;101078.56;5053030;28;20724;-64
2022/08/11 01:50:50;;;;;;;7.55;7.25;;;;;;;14.41;100.00;101078.22;5079024;28;20028;-64
2022/08/11 01:53:46;;;;;;;7.70;7.40;;;;;;;14.35;100.00;101073.63;5053736;28;20028;-64
2022/08/11 01:56:33;;;;;;;7.47;7.18;;;;;;;14.37;100.00;101077.75;5052659;28;20542;-64
2022/08/11 01:59:10;;;;;;;7.20;6.90;;;;;;;14.40;100.00;101081.91;5052732;28;20032;-65
2022/08/11 02:01:49;;;;;;;7.20;6.90;;;;;;;14.43;100.00;101083.34;5052699;28;20013;-64
2022/08/11 02:04:51;;;;;;;7.30;7.00;;;;;;;14.43;100.00;101084.19;5045167;28;20028;-65
2022/08/11 02:07:31;;;;;;;7.45;7.15;;;;;;;14.44;100.00;101083.16;5053328;28;20104;-64
2022/08/11 02:10:00;;;;;;;7.70;7.40;;;;;;;14.47;100.00;101082.84;5052120;28;20033;-64
2022/08/11 02:12:25;;;;;;;7.47;7.18;;;;;;;14.45;100.00;101086.66;5052486;28;20078;-65
2022/08/11 02:15:18;;;;;;;7.35;7.05;;;;;;;14.44;100.00;101093.00;5052552;28;20017;-65
2022/08/11 02:17:56;;;;;;;7.30;7.00;;;;;;;14.51;100.00;101094.78;5052551;28;20111;-64
2022/08/11 02:26:30;;;;;;;7.30;7.00;;;;;;;14.48;100.00;101097.84;5051889;28;20041;-64
2022/08/11 02:29:28;;;;;;;7.20;6.90;;;;;;;14.54;100.00;101094.44;5057717;28;20029;-64
2022/08/11 02:35:27;;;;;;;7.30;7.00;;;;;;;14.55;100.00;101095.25;5044609;28;20134;-63
2022/08/11 02:38:15;;;;;;;7.30;7.00;;;;;;;14.50;100.00;101093.13;5040219;28;20568;-64
2022/08/11 02:44:27;;;;;;;7.40;7.10;;;;;;;14.46;100.00;101094.50;5048112;28;20518;-65
2022/08/11 02:47:29;;;;;;;7.38;7.07;;;;;;;14.47;100.00;101098.84;5051956;28;20028;-64
2022/08/11 02:50:04;;;;;;;7.75;7.45;;;;;;;14.53;100.00;101108.78;5067372;28;20103;-63
2022/08/11 02:52:30;;;;;;;7.50;7.20;;;;;;;14.56;100.00;101119.09;5051812;28;20027;-63
2022/08/11 02:54:55;;;;;;;7.50;7.20;;;;;;;14.59;100.00;101116.03;5071366;28;20103;-64
2022/08/11 02:57:21;;;;;;;7.50;7.20;;;;;;;14.58;100.00;101106.38;5055839;28;20023;-65
2022/08/11 02:59:54;;;;;;;7.47;7.18;;;;;;;14.63;100.00;101098.66;5051483;28;20028;-64
2022/08/11 03:02:31;;;;;;;7.40;7.10;;;;;;;14.65;100.00;101109.97;5051458;28;20021;-63
2022/08/11 03:05:09;;;;;;;7.43;7.13;;;;;;;14.71;100.00;101107.56;5052032;28;20387;-65
2022/08/11 03:07:40;;;;;;;7.40;7.10;;;;;;;14.74;100.00;101104.50;5046465;28;20024;-63
2022/08/11 03:10:28;;;;;;;7.30;7.00;;;;;;;14.67;100.00;101109.75;5051716;28;20057;-65
2022/08/11 03:16:45;;;;;;;7.25;6.95;;;;;;;14.59;100.00;101101.88;5052109;28;20584;-63
2022/08/11 03:19:36;;;;;;;7.45;7.15;;;;;;;14.55;100.00;101105.94;5012702;28;20404;-63
2022/08/11 03:22:31;;;;;;;7.88;7.55;;;;;;;14.58;100.00;101102.88;5051283;28;20017;-64
2022/08/11 03:25:02;;;;;;;7.47;7.18;;;;;;;14.59;100.00;101102.69;5049545;28;20028;-64
2022/08/11 03:27:45;;;;;;;7.63;7.32;;;;;;;14.65;100.00;101104.63;5052374;28;20025;-64
2022/08/11 03:30:49;;;;;;;7.60;7.30;;;;;;;14.78;100.00;101103.13;5051143;28;20028;-65
2022/08/11 03:37:00;;;;;;;7.60;7.30;;;;;;;15.99;100.00;101102.16;5053618;28;20123;-65
2022/08/11 03:39:53;;;;;;;7.38;7.07;;;;;;;16.60;100.00;101096.94;4994308;28;20026;-64
2022/08/11 03:42:27;;;;;;;7.60;7.30;;;;;;;17.19;100.00;101090.13;5045488;28;20084;-64
2022/08/11 03:45:01;;;;;;;;;;;;;;;17.84;100.00;101086.63;5037068;28;20685;-65
2022/08/11 03:47:45;;;;;;;7.70;7.40;;;;;;;19.19;100.00;101076.78;5051071;28;19962;-64
2022/08/11 03:50:47;;;;;;;7.53;7.22;;;;;;;20.31;100.00;101074.91;5037319;28;20029;-65
2022/08/11 03:53:38;;;;;;;7.85;7.55;;;;;;;20.51;100.00;101069.31;5043464;28;20404;-64
2022/08/11 03:56:27;;;;;;;7.80;7.50;;;;;;;22.10;100.00;101074.91;5055930;28;20106;-65
2022/08/11 03:58:52;;;;;;;7.82;7.53;;;;;;;22.73;100.00;101075.91;5053897;28;20500;-65
2022/08/11 04:01:36;;;;;;;7.53;7.22;;;;;;;23.01;100.00;101085.94;5048631;28;20082;-64
2022/08/11 04:04:36;;;;;;;7.28;6.97;;;;;;;23.09;100.00;101070.09;5054809;28;20472;-63
2022/08/11 04:07:16;;;;;;;7.85;7.55;;;;;;;24.34;100.00;101065.22;5062075;28;20032;-64
2022/08/11 04:09:54;;;;;;;7.60;7.30;;;;;;;24.64;100.00;101064.75;5054244;28;20071;-63
2022/08/11 04:13:08;;;;;;;7.80;7.50;;;;;;;25.23;100.00;101072.94;5045730;28;20028;-63
2022/08/11 04:15:59;;;;;;;7.80;7.50;;;;;;;26.26;100.00;101069.81;5057155;28;20158;-65
2022/08/11 04:18:43;;;;;;;7.65;7.35;;;;;;;26.56;100.00;101076.47;5046665;28;20500;-65
2022/08/11 04:21:27;;;;;;;7.55;7.25;;;;;;;27.26;100.00;101080.44;5052756;28;20033;-64
2022/08/11 04:24:06;;;;;;;7.50;7.20;;;;;;;28.52;100.00;101077.72;5054018;28;20048;-64
2022/08/11 04:27:08;;;;;;;7.50;7.20;;;;;;;28.56;99.34;101073.31;5054130;28;20083;-64
2022/08/11 04:29:43;;;;;;;7.47;7.18;;;;;;;28.32;100.00;101065.78;5051094;28;20036;-63
2022/08/11 04:32:33;;;;;;;7.80;7.50;;;;;;;28.45;97.53;101063.56;5069585;28;20047;-64
2022/08/11 04:35:19;;;;;;;7.65;7.35;;;;;;;27.57;100.00;101064.06;5053836;28;20029;-64
2022/08/11 04:37:53;;;;;;;7.63;7.32;;;;;;;25.40;100.00;101056.50;5049214;28;20528;-64
2022/08/11 04:40:56;;;;;;;7.40;7.10;;;;;;;23.83;100.00;101050.97;5049699;28;20033;-65
2022/08/11 04:44:05;;;;;;;7.57;7.28;;;;;;;23.44;100.00;101047.41;5050465;28;20037;-66
2022/08/11 04:46:36;;;;;;;8.00;7.70;;;;;;;27.26;100.00;101056.72;5054405;28;20447;-66
2022/08/11 05:02:18;;;;;;;7.72;7.43;;;;;;;26.34;100.00;101038.56;5051143;28;20043;-66
2022/08/11 05:08:10;;;;;;;7.75;7.45;;;;;;;29.93;88.98;101047.59;5054469;28;20601;-67
2022/08/11 05:11:12;;;;;;;7.70;7.40;;;;;;;30.02;83.04;101046.94;5050158;28;20032;-67
2022/08/11 05:36:44;;;;;;;7.90;7.60;;;;;;;31.66;69.08;101035.97;5061025;28;20059;-65
2022/08/11 05:58:44;;;;;;;8.00;7.70;;;;;;;31.13;72.95;101038.25;5068684;28;20039;-66
2022/08/11 06:01:20;;;;;;;7.88;7.57;;;;;;;31.68;68.54;101035.66;5060072;28;20062;-65
2022/08/11 06:04:35;;;;;;;7.80;7.50;;;;;;;30.58;72.29;101029.81;5061948;28;20028;-65
2022/08/11 06:06:39;;;;;;;7.88;7.57;;;;;;;32.09;67.51;101032.91;5047621;28;20117;-65
2022/08/11 06:09:07;;;;;;;7.82;7.53;;;;;;;31.76;66.36;101030.28;5051961;28;20034;-65
2022/08/11 06:11:39;;;;;;;7.80;7.50;;;;;;;31.80;68.23;101025.84;5052729;28;20025;-66
2022/08/11 06:14:06;;;;;;;7.65;7.35;;;;;;;32.64;64.22;101021.84;5052158;28;20043;-66
2022/08/11 06:16:33;;;;;;;7.88;7.57;;;;;;;32.24;65.95;101015.31;5051857;28;20033;-65
2022/08/11 06:18:59;;;;;;;7.85;7.55;;;;;;;31.95;67.82;101010.16;5058765;28;20038;-65
2022/08/11 06:21:26;;;;;;;8.00;7.70;;;;;;;33.01;64.14;101008.88;5052252;28;20032;-66
2022/08/11 06:23:51;;;;;;;7.90;7.60;;;;;;;32.18;65.15;101007.22;5051105;28;20388;-66
2022/08/11 06:26:19;;;;;;;8.02;7.72;;;;;;;33.04;61.89;101006.31;5050634;28;20032;-67
2022/08/11 06:28:47;;;;;;;8.00;7.70;;;;;;;33.00;61.92;101013.59;5052077;28;20031;-66
2022/08/11 06:31:23;;;;;;;7.80;7.50;;;;;;;33.53;59.67;101007.25;5051842;28;20472;-66
2022/08/11 06:34:10;;;;;;;7.90;7.60;;;;;;;32.67;60.61;101000.06;5052175;28;20538;-65
2022/08/11 06:36:56;;;;;;;7.90;7.60;;;;;;;33.66;58.03;101006.34;5044034;28;20044;-65
2022/08/11 06:39:42;;;;;;;7.75;7.45;;;;;;;33.02;58.72;100996.78;5051892;28;20025;-66
2022/08/11 06:42:28;;;;;;;7.97;7.68;;;;;;;34.00;57.74;101004.81;5051670;28;20069;-66
2022/08/11 06:45:14;;;;;;;7.80;7.50;;;;;;;34.79;54.91;101001.00;5051634;28;20056;-65
2022/08/11 06:47:47;;;;;;;7.80;7.50;;;;;;;34.43;53.89;101001.34;5051621;28;20036;-66
2022/08/11 06:53:09;;;;;;;7.70;7.40;;;;;;;34.14;54.57;100986.22;5052001;28;20449;-66
2022/08/11 07:01:15;;;;;;;7.80;7.50;;;;;;;34.77;52.35;101000.53;5051390;28;20063;-65
2022/08/11 07:03:50;;;;;;;7.80;7.50;;;;;;;34.30;53.58;100987.41;5051171;28;20068;-65
2022/08/11 07:15:40;;;;;;;7.82;7.53;;;;;;;34.30;52.95;100992.91;5051431;28;20492;-66
2022/08/11 07:15:41;;;;;;;7.60;7.30;;;;;;;34.69;51.71;100987.56;5051236;28;20036;-66
2022/08/11 07:29:53;;;;;;;7.63;7.32;;;;;;;35.37;49.93;101003.16;5045361;28;20036;-65
2022/08/11 07:32:28;;;;;;;7.57;7.28;;;;;;;33.80;52.06;100987.75;5054908;28;20040;-65
2022/08/11 07:35:06;;;;;;;7.50;7.20;;;;;;;34.03;52.26;100985.72;5055526;28;20032;-65
2022/08/11 07:37:33;;;;;;;7.70;7.40;;;;;;;34.27;52.01;100987.22;5055195;28;20025;-66
2022/08/11 07:40:00;;;;;;;7.80;7.50;;;;;;;33.97;52.03;100988.97;5055128;28;20091;-66
2022/08/11 07:42:29;;;;;;;7.50;7.20;;;;;;;33.90;52.51;100994.13;5055154;28;20048;-67
2022/08/11 07:53:14;;;;;;;7.60;7.30;;;;;;;34.01;52.55;100989.94;5054968;28;20400;-66
2022/08/11 07:55:42;;;;;;;7.28;6.97;;;;;;;31.41;58.80;100976.13;5055175;28;20460;-66
2022/08/11 08:17:50;;;;;;;7.95;7.65;;;;;;;30.59;67.69;100982.94;5054542;28;20512;-66
2022/08/11 08:20:18;;;;;;;7.60;7.30;;;;;;;30.06;70.08;100971.38;5054349;28;20025;-66
2022/08/11 08:22:49;;;;;;;7.47;7.18;;;;;;;30.27;73.76;100970.84;5053920;28;20035;-67
2022/08/11 08:25:16;;;;;;;7.72;7.43;;;;;;;29.40;74.19;100968.31;5054461;28;20170;-66
2022/08/11 08:27:44;;;;;;;7.80;7.50;;;;;;;30.54;72.60;100961.94;5054161;28;20120;-66
2022/08/11 08:32:57;;;;;;;7.38;7.07;;;;;;;29.29;74.99;100963.22;5054666;28;20032;-67
2022/08/11 08:35:23;;;;;;;7.80;7.50;;;;;;;28.26;82.19;100960.47;5052485;28;20108;-67
2022/08/11 08:37:50;;;;;;;7.88;7.57;;;;;;;28.78;84.04;100963.66;5066295;28;20033;-66
2022/08/11 08:40:17;;;;;;;7.60;7.30;;;;;;;29.48;77.00;100968.78;5052544;28;20025;-66
2022/08/11 08:42:53;;;;;;;7.70;7.40;;;;;;;28.11;85.58;100959.72;5053910;28;20381;-66
2022/08/11 08:45:20;;;;;;;7.38;7.07;;;;;;;28.77;84.91;100960.13;5054092;28;20060;-67
2022/08/11 08:48:09;;;;;;;7.40;7.10;;;;;;;29.32;81.82;100962.69;5054301;28;20044;-66
2022/08/11 08:53:45;;;;;;;7.63;7.32;;;;;;;29.17;85.37;100952.72;5054137;28;20040;-66
2022/08/11 08:56:11;;;;;;;7.78;7.47;;;;;;;29.80;81.39;100954.47;5053688;28;20024;-67
2022/08/11 08:58:41;;;;;;;7.80;7.50;;;;;;;29.57;81.64;100947.94;5053509;28;20445;-67
2022/08/11 09:01:10;;;;;;;7.57;7.28;;;;;;;30.22;77.33;100950.94;5052904;28;20435;-66
2022/08/11 09:03:37;;;;;;;7.40;7.10;;;;;;;30.17;76.31;100949.06;5054191;28;20029;-66
2022/08/11 09:06:02;;;;;;;7.85;7.55;;;;;;;30.45;73.87;100947.28;5053866;28;20484;-65
2022/08/11 09:08:31;;;;;;;7.50;7.20;;;;;;;30.94;72.00;100958.88;5045906;28;20083;-67
2022/08/11 09:13:45;;;;;;;7.60;7.30;;;;;;;29.23;75.40;100937.06;5053496;28;20083;-67
2022/08/11 09:16:12;;;;;;;7.80;7.50;;;;;;;29.38;77.17;100939.63;5045634;28;20116;-66
2022/08/11 09:18:43;;;;;;;7.63;7.32;;;;;;;30.46;71.55;100937.97;5052292;28;20159;-66
2022/08/11 09:21:10;;;;;;;7.40;7.10;;;;;;;29.87;72.55;100931.13;5046258;28;20433;-65
2022/08/11 09:29:07;;;;;;;;;;;;;;;29.96;74.04;100923.88;5040660;28;20036;-66
2022/08/11 09:31:33;;;;;;;7.60;7.30;;;;;;;29.65;76.82;100918.00;5053214;28;19909;-67
2022/08/11 09:34:00;;;;;;;7.28;6.97;;;;;;;28.75;79.91;100920.56;5053002;28;20032;-66
2022/08/11 09:42:00;;;;;;;7.50;7.20;;;;;;;27.70;87.78;100917.13;5053106;28;20102;-67
2022/08/11 09:47:14;;;;;;;7.53;7.22;;;;;;;29.46;80.59;100925.34;5053396;28;20039;-66
2022/08/11 09:49:44;;;;;;;7.50;7.20;;;;;;;28.78;83.84;100914.53;5051918;28;20111;-67
2022/08/11 09:52:13;;;;;;;7.40;7.10;;;;;;;28.44;84.90;100917.28;5052589;28;20104;-66
2022/08/11 09:54:43;;;;;;;7.80;7.50;;;;;;;27.43;89.38;100924.84;5052410;28;20028;-65
2022/08/11 09:59:53;;;;;;;7.20;6.90;;;;;;;28.88;83.83;100931.66;5052651;28;20027;-67
2022/08/11 10:02:26;;;;;;;7.35;7.05;;;;;;;28.29;86.26;100912.72;5052121;28;20048;-68
2022/08/11 10:07:00;;;;;;;7.38;7.07;;;;;;;27.89;86.81;100909.13;5048617;28;20120;-67
2022/08/11 10:07:49;;;;;;;7.72;7.43;;;;;;;28.93;84.39;100914.41;5052348;28;20044;-65
2022/08/11 10:10:21;;;;;;;7.35;7.05;;;;;;;27.62;90.02;100908.69;5052423;28;20498;-65
2022/08/11 10:12:51;;;;;;;7.60;7.30;;;;;;;27.63;92.27;100913.06;5052394;28;20086;-66
2022/08/11 10:15:34;;;;;;;7.45;7.15;;;;;;;28.19;90.35;100910.84;5052264;28;20020;-67
2022/08/11 10:21:00;;;;;;;7.70;7.40;;;;;;;27.65;94.08;100905.41;5052300;28;20031;-66
2022/08/11 10:33:58;;;;;;;7.40;7.10;;;;;;;27.44;94.13;100907.38;5042196;28;20050;-67
2022/08/11 10:34:35;;;;;;;7.65;7.35;;;;;;;26.98;96.71;100913.72;5052273;28;20163;-66
2022/08/11 10:37:01;;;;;;;7.38;7.07;;;;;;;27.50;92.71;100912.53;5063799;28;20024;-67
2022/08/11 10:39:28;;;;;;;7.40;7.10;;;;;;;26.63;95.37;100913.75;5051623;28;20074;-66
2022/08/11 10:44:46;;;;;;;7.63;7.32;;;;;;;26.95;94.58;100908.00;5051987;28;20433;-66
2022/08/11 11:01:00;;;;;;;7.28;6.97;;;;;;;27.39;91.55;100882.88;5051184;28;20043;-66
2022/08/11 11:03:28;;;;;;;7.50;7.20;;;;;;;27.31;93.46;100888.91;5050686;28;20104;-67
2022/08/11 11:06:06;;;;;;;7.57;7.28;;;;;;;26.24;97.65;100892.47;5051374;28;20492;-65
2022/08/11 11:08:53;;;;;;;7.55;7.25;;;;;;;26.77;95.78;100886.81;5042299;28;20035;-67
2022/08/11 11:17:54;;;;;;;7.70;7.40;;;;;;;27.25;92.07;100888.13;5051332;28;20033;-66
2022/08/11 11:19:54;;;;;;;7.50;7.20;;;;;;;27.86;88.39;100881.63;5051501;28;20075;-68
2022/08/11 11:22:39;;;;;;;7.60;7.30;;;;;;;28.19;87.33;100880.84;5055320;28;20556;-66
2022/08/11 11:25:16;;;;;;;7.40;7.10;;;;;;;27.90;87.40;100869.03;5056711;28;20031;-66
2022/08/11 11:27:55;;;;;;;7.68;7.38;;;;;;;28.44;85.05;100868.97;5051283;28;20435;-65
2022/08/11 11:30:26;;;;;;;7.13;6.82;;;;;;;28.58;84.72;100867.22;5051113;28;20056;-67
2022/08/11 11:33:08;;;;;;;7.50;7.20;;;;;;;26.73;88.27;100872.91;5050979;28;20098;-65
2022/08/11 11:36:02;;;;;;;7.45;7.15;;;;;;;28.05;84.42;100875.19;5051246;28;20024;-66
2022/08/11 11:38:28;;;;;;;;;;;;;;;28.08;83.27;100868.38;5051699;28;20016;-66
2022/08/11 11:43:38;;;;;;;7.88;7.57;;;;;;;27.87;86.27;100870.41;5047721;28;20622;-66
2022/08/11 11:46:05;;;;;;;7.80;7.50;;;;;;;28.05;82.35;100877.94;5040848;28;20033;-66
2022/08/11 11:48:32;;;;;;;8.10;7.80;;;;;;;28.31;80.63;100864.97;5050498;28;20025;-66
2022/08/11 11:50:58;;;;;;;7.50;7.20;;;;;;;28.87;78.73;100866.41;5051066;28;20100;-66
2022/08/11 11:53:25;;;;;;;7.80;7.50;;;;;;;28.92;77.81;100868.28;5050898;28;20025;-66
2022/08/11 11:55:51;;;;;;;7.50;7.20;;;;;;;28.40;79.07;100853.44;5050069;28;20029;-68
2022/08/11 12:01:18;;;;;;;;;;;;;;;27.19;80.71;100849.19;5038415;28;20168;-66
2022/08/11 12:03:48;;;;;;;7.90;7.60;;;;;;;26.37;85.56;100853.06;5050979;28;20015;-64
2022/08/11 12:06:15;;;;;;;8.10;7.80;;;;;;;26.84;81.74;100849.22;5049765;28;20083;-66
2022/08/11 12:08:42;;;;;;;7.57;7.28;;;;;;;27.18;80.75;100850.28;5051157;28;20391;-66
2022/08/11 12:13:57;;;;;;;7.38;7.07;;;;;;;27.35;78.63;100851.84;5051866;28;20071;-67
2022/08/11 12:16:23;;;;;;;7.47;7.18;;;;;;;27.91;78.51;100851.56;5054603;28;20104;-66
2022/08/11 12:18:52;;;;;;;7.35;7.05;;;;;;;28.68;75.62;100852.63;5054350;28;20128;-66
2022/08/11 12:21:18;;;;;;;7.40;7.10;;;;;;;28.78;75.13;100862.63;5054196;28;20071;-67
2022/08/11 12:29:20;;;;;;;7.35;7.05;;;;;;;28.61;73.23;100846.69;5054684;28;20029;-66
2022/08/11 12:31:47;;;;;;;7.28;6.97;;;;;;;28.34;72.00;100839.81;5054339;28;20025;-66
2022/08/11 12:34:15;;;;;;;7.70;7.40;;;;;;;28.52;72.18;100830.13;5053986;28;20028;-66
2022/08/11 12:36:50;;;;;;;7.32;7.03;;;;;;;28.48;72.91;100836.44;5053420;28;20055;-65
2022/08/11 12:45:26;;;;;;;7.70;7.40;;;;;;;28.63;72.95;100830.84;5052426;28;20020;-66
2022/08/11 12:53:30;;;;;;;7.30;7.00;;;;;;;28.93;68.87;100821.53;5054064;28;20397;-66
2022/08/11 12:58:51;;;;;;;7.28;6.97;;;;;;;28.20;69.02;100819.72;5044643;28;20120;-66
2022/08/11 13:06:50;;;;;;;7.70;7.40;;;;;;;28.09;65.28;100816.28;5049956;28;20123;-66
2022/08/11 13:09:17;;;;;;;7.50;7.20;;;;;;;28.27;65.70;100822.13;5053278;28;20025;-66
2022/08/11 13:14:31;;;;;;;7.25;6.95;;;;;;;27.91;67.26;100827.03;5053747;28;20032;-66
2022/08/11 13:19:43;;;;;;;7.20;6.90;;;;;;;27.94;68.86;100827.28;5046639;28;20515;-66
2022/08/11 13:22:10;;;;;;;7.10;6.80;;;;;;;27.96;67.93;100819.63;5053741;28;20063;-66
2022/08/11 13:24:38;;;;;;;7.55;7.25;;;;;;;28.14;67.59;100809.97;5052986;28;20082;-66
2022/08/11 13:27:04;;;;;;;7.40;7.10;;;;;;;27.94;66.79;100805.47;5052788;28;20492;-66
2022/08/11 13:29:30;;;;;;;7.45;7.15;;;;;;;27.93;67.84;100816.69;5052897;28;20484;-67
2022/08/11 13:31:58;;;;;;;7.30;7.00;;;;;;;28.29;68.08;100804.38;5053293;28;20025;-66
2022/08/11 13:34:26;;;;;;;7.60;7.30;;;;;;;28.13;68.44;100800.16;5053311;28;20384;-65
2022/08/11 13:36:57;;;;;;;7.63;7.32;;;;;;;28.11;68.36;100798.81;5053149;28;20032;-66
2022/08/11 13:39:26;;;;;;;7.63;7.32;;;;;;;28.16;68.45;100794.13;5051385;28;20427;-66
2022/08/11 13:41:58;;;;;;;7.32;7.03;;;;;;;27.69;70.08;100797.44;5052747;28;20090;-66
2022/08/11 13:44:26;;;;;;;7.28;6.97;;;;;;;28.08;69.98;100792.00;5052835;28;20475;-66
2022/08/11 13:46:56;;;;;;;7.47;7.18;;;;;;;27.74;70.61;100794.69;5052917;28;20451;-67
2022/08/11 13:49:22;;;;;;;7.40;7.10;;;;;;;27.51;70.31;100783.38;5052847;28;20437;-66
2022/08/11 13:51:49;;;;;;;7.68;7.38;;;;;;;27.68;68.60;100788.47;5052821;28;20397;-66
2022/08/11 13:54:21;;;;;;;7.43;7.13;;;;;;;27.69;67.18;100786.56;5052543;28;20028;-67
2022/08/11 13:56:51;;;;;;;7.45;7.15;;;;;;;27.56;66.72;100776.28;5045054;28;20507;-66
2022/08/11 13:59:24;;;;;;;7.60;7.30;;;;;;;27.19;69.52;100785.72;5052710;28;20143;-66
2022/08/11 14:01:58;;;;;;;7.47;7.18;;;;;;;27.57;69.20;100789.59;5052630;28;20039;-66
2022/08/11 14:04:38;;;;;;;;;;;;;;;27.53;69.68;100785.81;5052501;28;20029;-66
2022/08/11 14:07:07;;;;;;;7.50;7.20;;;;;;;27.53;68.97;100791.25;5052481;28;19913;-66
2022/08/11 14:09:40;;;;;;;7.15;6.85;;;;;;;27.77;68.28;100788.72;5052351;28;20025;-66
2022/08/11 14:15:09;;;;;;;7.38;7.07;;;;;;;27.72;69.32;100772.38;5052764;28;20071;-66
2022/08/11 14:17:38;;;;;;;7.35;7.05;;;;;;;27.42;69.27;100770.63;5067772;28;20098;-66
2022/08/11 14:20:07;;;;;;;7.55;7.25;;;;;;;27.38;71.42;100775.81;5051745;28;20562;-66
2022/08/11 14:22:35;;;;;;;7.50;7.20;;;;;;;27.16;70.91;100762.56;5052286;28;20040;-66
2022/08/11 14:25:01;;;;;;;7.40;7.10;;;;;;;27.34;70.23;100779.38;5039109;28;20659;-66
2022/08/11 14:27:29;;;;;;;7.40;7.10;;;;;;;27.74;69.14;100770.97;5062638;28;20389;-66
2022/08/11 14:29:56;;;;;;;7.65;7.35;;;;;;;27.73;67.96;100774.00;5051706;28;20039;-66
2022/08/11 14:32:23;;;;;;;7.50;7.20;;;;;;;26.49;71.60;100769.28;5064598;28;20024;-67
2022/08/11 14:34:49;;;;;;;7.47;7.18;;;;;;;27.05;72.13;100766.44;5050947;28;20075;-67
2022/08/11 14:37:21;;;;;;;7.32;7.03;;;;;;;27.39;70.83;100774.69;5050271;28;20103;-67
2022/08/11 14:39:55;;;;;;;7.53;7.22;;;;;;;27.47;70.18;100771.41;5051718;28;20137;-67
2022/08/11 14:48:08;;;;;;;7.43;7.13;;;;;;;27.69;69.83;100762.88;5054387;28;20998;-66
2022/08/11 14:50:35;;;;;;;7.40;7.10;;;;;;;27.68;69.13;100763.13;5060221;28;20100;-67
2022/08/11 14:53:10;;;;;;;7.80;7.50;;;;;;;26.80;69.75;100758.31;5050399;28;20030;-66
2022/08/11 14:58:26;;;;;;;7.60;7.30;;;;;;;27.35;68.48;100760.03;5052169;28;20056;-67
2022/08/11 15:00:54;;;;;;;7.47;7.18;;;;;;;27.36;67.79;100758.13;5047028;28;20025;-66
2022/08/11 15:03:21;;;;;;;7.50;7.20;;;;;;;27.27;67.76;100763.34;5051747;28;20126;-67
2022/08/11 15:05:47;;;;;;;7.40;7.10;;;;;;;27.47;67.38;100759.69;5038697;28;20021;-66
2022/08/11 15:08:15;;;;;;;7.70;7.40;;;;;;;27.49;66.91;100768.41;5051307;28;20397;-66
2022/08/11 15:10:41;;;;;;;7.40;7.10;;;;;;;27.44;66.92;100754.81;5051327;28;20895;-66
2022/08/11 15:13:09;;;;;;;8.00;7.70;;;;;;;27.41;66.58;100758.09;5051315;28;20029;-65
2022/08/11 15:18:23;;;;;;;7.35;7.05;;;;;;;27.44;66.94;100749.34;5051001;28;20040;-65
2022/08/11 15:37:24;;;;;;;;;;;;;;;26.94;67.51;100737.56;5052220;28;20059;-67
2022/08/11 15:37:29;;;;;;;7.30;7.00;;;;;;;27.48;67.32;100734.91;5045113;28;19916;-67
2022/08/11 15:45:53;;;;;;;7.32;7.03;;;;;;;27.20;64.96;100732.88;5050982;28;20054;-68
2022/08/11 15:48:27;;;;;;;7.30;7.00;;;;;;;26.95;64.06;100736.47;5066372;28;20767;-66
2022/08/11 15:50:56;;;;;;;7.60;7.30;;;;;;;27.15;63.45;100728.25;5053854;28;20021;-67
2022/08/11 15:53:39;;;;;;;7.72;7.43;;;;;;;26.97;65.33;100724.25;5054904;28;20025;-66
2022/08/11 15:56:07;;;;;;;7.47;7.18;;;;;;;26.94;66.47;100722.06;5054459;28;20032;-66
2022/08/11 16:04:18;;;;;;;7.32;7.03;;;;;;;26.89;67.94;100727.53;5054056;28;20059;-66
2022/08/11 16:06:49;;;;;;;7.55;7.25;;;;;;;26.82;68.13;100721.56;5054374;28;20032;-66
2022/08/11 16:09:20;;;;;;;7.70;7.40;;;;;;;26.74;68.46;100726.78;5054384;28;20017;-67
2022/08/11 16:11:47;;;;;;;7.50;7.20;;;;;;;26.73;69.85;100723.22;5054380;28;20024;-67
2022/08/11 16:17:01;;;;;;;7.40;7.10;;;;;;;26.75;70.26;100725.69;5054804;28;20071;-66
2022/08/11 16:19:33;;;;;;;7.60;7.30;;;;;;;26.57;70.93;100727.09;5054238;28;20033;-65
2022/08/11 16:21:59;;;;;;;7.50;7.20;;;;;;;26.45;73.21;100730.13;5054622;28;20457;-66
2022/08/11 16:24:26;;;;;;;7.40;7.10;;;;;;;26.47;73.98;100725.22;5054341;28;20021;-66
2022/08/11 16:26:54;;;;;;;7.68;7.38;;;;;;;26.43;74.02;100735.81;5059847;28;20032;-66
2022/08/11 16:29:23;;;;;;;7.50;7.20;;;;;;;26.37;74.99;100739.63;5060491;28;20115;-67
2022/08/11 16:32:34;;;;;;;7.35;7.05;;;;;;;26.27;74.94;100744.25;5054539;28;20032;-66
2022/08/11 16:40:21;;;;;;;7.93;7.63;;;;;;;26.30;76.35;100741.81;5054264;28;20116;-65
2022/08/11 16:48:20;;;;;;;8.00;7.70;;;;;;;26.11;77.38;100746.16;5054001;28;20051;-66